Time;durP1;ratioP1;P1;durP2;ratioP2;P2;SDS_P1;SDS_P2;PMS_P1;PMS_P2;Temp;Humidity;BMP_temperature;BMP_pressure;BME280_temperature;BME280_humidity;BME280_pressure;Samples;Min_cycle;Max_cycle;Signal;HPM_P1;HPM_P2
2022/10/06 00:03:56;;;;;;;1.25;0.65;;;16.20;97.50;;;;;;9983222;29;20043;-61
2022/10/06 00:09:15;;;;;;;1.48;0.60;;;16.20;97.50;;;;;;9988018;29;20529;-61
2022/10/06 00:14:35;;;;;;;2.15;0.60;;;16.20;97.50;;;;;;9980844;29;20455;-60
2022/10/06 00:19:54;;;;;;;1.08;0.55;;;16.10;97.50;;;;;;9981071;29;20042;-71
2022/10/06 00:25:19;;;;;;;0.70;0.60;;;16.10;97.50;;;;;;9983719;29;20061;-61
2022/10/06 00:30:39;;;;;;;1.42;0.50;;;16.10;97.50;;;;;;9982954;29;20043;-68
2022/10/06 00:35:59;;;;;;;2.30;0.73;;;16.10;97.50;;;;;;9986022;29;20033;-64
2022/10/06 00:41:18;;;;;;;1.42;0.60;;;16.10;97.50;;;;;;9989445;29;20081;-71
2022/10/06 00:46:46;;;;;;;2.55;1.10;;;16.10;97.50;;;;;;9983252;29;20069;-61
2022/10/06 00:52:10;;;;;;;1.20;0.60;;;16.00;97.40;;;;;;9994387;29;20384;-60
2022/10/06 00:57:30;;;;;;;0.47;0.38;;;16.00;97.40;;;;;;9986471;29;20027;-62
2022/10/06 01:03:09;;;;;;;2.45;0.60;;;16.00;97.40;;;;;;9992800;29;20046;-60
2022/10/06 01:08:31;;;;;;;2.70;0.52;;;16.00;97.40;;;;;;9985430;29;20058;-60
2022/10/06 01:13:50;;;;;;;1.52;0.70;;;16.00;97.40;;;;;;9987595;29;20042;-60
2022/10/06 01:19:46;;;;;;;2.60;0.52;;;16.00;97.40;;;;;;9982458;29;20042;-66
2022/10/06 01:25:07;;;;;;;1.23;0.57;;;16.00;97.40;;;;;;9982054;29;20065;-60
2022/10/06 01:30:31;;;;;;;3.35;0.50;;;15.90;97.40;;;;;;9987376;29;20022;-60
2022/10/06 01:35:52;;;;;;;1.60;0.60;;;16.00;97.40;;;;;;9986447;29;20276;-61
2022/10/06 01:41:11;;;;;;;1.88;0.65;;;15.90;97.40;;;;;;9983901;29;20042;-60
2022/10/06 01:46:30;;;;;;;3.42;1.27;;;15.90;97.40;;;;;;9991277;29;20124;-60
2022/10/06 01:51:50;;;;;;;1.63;0.73;;;15.90;97.30;;;;;;9989433;29;20049;-60
2022/10/06 01:57:09;;;;;;;1.73;0.40;;;15.90;97.40;;;;;;9993184;29;20077;-70
2022/10/06 02:02:30;;;;;;;5.95;0.70;;;15.80;97.30;;;;;;9995601;29;20054;-60
2022/10/06 02:07:50;;;;;;;2.30;0.77;;;15.80;97.30;;;;;;9986067;29;20054;-60
2022/10/06 02:13:10;;;;;;;0.70;0.50;;;15.80;97.60;;;;;;9994666;29;20054;-60
2022/10/06 02:18:29;;;;;;;0.65;0.50;;;15.80;97.30;;;;;;10000055;29;20457;-61
2022/10/06 02:23:48;;;;;;;2.47;0.52;;;15.70;97.30;;;;;;9986804;29;20050;-61
2022/10/06 02:29:08;;;;;;;2.60;0.60;;;15.80;97.30;;;;;;9989729;29;20712;-60
2022/10/06 02:34:28;;;;;;;2.65;0.50;;;15.70;97.30;;;;;;9990915;29;20052;-60
2022/10/06 02:39:47;;;;;;;1.58;0.55;;;15.70;97.30;;;;;;9991068;29;20551;-67
2022/10/06 02:45:07;;;;;;;8.10;0.70;;;15.70;97.20;;;;;;9997948;29;20674;-60
2022/10/06 02:50:26;;;;;;;2.05;0.88;;;15.70;97.20;;;;;;9991595;29;20041;-61
2022/10/06 02:55:45;;;;;;;2.28;0.55;;;15.60;97.20;;;;;;9993548;29;20475;-60
2022/10/06 03:01:13;;;;;;;3.80;0.90;;;15.60;97.20;;;;;;9992052;29;20038;-61
2022/10/06 03:06:32;;;;;;;0.88;0.38;;;15.60;97.10;;;;;;9984184;29;20572;-59
2022/10/06 03:11:52;;;;;;;2.22;0.60;;;15.60;97.20;;;;;;9979600;29;20042;-60
2022/10/06 03:17:11;;;;;;;3.30;0.60;;;15.60;97.10;;;;;;9972909;29;20454;-60
2022/10/06 03:22:30;;;;;;;4.53;0.80;;;15.50;97.10;;;;;;9981903;29;20490;-62
2022/10/06 03:27:49;;;;;;;1.92;0.38;;;15.50;97.10;;;;;;9986823;29;20054;-64
2022/10/06 03:33:09;;;;;;;1.40;0.45;;;15.50;97.10;;;;;;9993225;29;20042;-68
2022/10/06 03:38:33;;;;;;;3.83;0.60;;;15.50;97.00;;;;;;9979072;29;20050;-70
2022/10/06 03:43:55;;;;;;;1.20;0.57;;;15.50;97.00;;;;;;9986510;29;20575;-60
2022/10/06 03:49:15;;;;;;;0.75;0.30;;;15.50;97.00;;;;;;9989306;29;20038;-66
2022/10/06 03:54:34;;;;;;;4.93;0.85;;;15.40;96.90;;;;;;9988431;29;20034;-61
2022/10/06 03:59:58;;;;;;;2.97;1.08;;;15.40;96.90;;;;;;9970625;29;20034;-65
2022/10/06 04:05:17;;;;;;;4.18;0.93;;;15.40;96.90;;;;;;9989150;29;20038;-60
2022/10/06 04:10:37;;;;;;;4.18;0.75;;;15.40;96.90;;;;;;9982364;29;20497;-62
2022/10/06 04:15:56;;;;;;;1.23;0.68;;;15.30;96.90;;;;;;9987835;29;20132;-60
2022/10/06 04:21:16;;;;;;;1.63;0.70;;;15.30;96.80;;;;;;9989277;29;20038;-59
2022/10/06 04:26:38;;;;;;;2.30;0.40;;;15.30;96.80;;;;;;9988080;29;20046;-60
2022/10/06 04:31:57;;;;;;;1.55;0.40;;;15.50;96.90;;;;;;9987765;29;20045;-60
2022/10/06 04:37:16;;;;;;;2.97;0.60;;;15.30;96.80;;;;;;9985544;29;20045;-61
2022/10/06 04:42:35;;;;;;;5.00;0.60;;;15.20;96.70;;;;;;9987888;29;20038;-60
2022/10/06 04:47:55;;;;;;;4.82;1.17;;;15.20;96.70;;;;;;9981455;29;20848;-60
2022/10/06 04:53:14;;;;;;;1.77;0.50;;;15.20;96.70;;;;;;9984367;29;20133;-63
2022/10/06 04:58:39;;;;;;;1.80;0.52;;;15.20;96.70;;;;;;9994381;29;20505;-61
2022/10/06 05:04:00;;;;;;;5.47;1.23;;;15.20;96.70;;;;;;9978465;29;20054;-68
2022/10/06 05:09:19;;;;;;;3.33;0.45;;;15.10;96.60;;;;;;9983094;29;20058;-61
2022/10/06 05:14:39;;;;;;;2.70;0.43;;;15.10;96.60;;;;;;9992719;29;20655;-60
2022/10/06 05:19:58;;;;;;;3.25;0.45;;;15.10;96.60;;;;;;9992562;29;20707;-60
2022/10/06 05:25:17;;;;;;;2.97;0.60;;;15.00;96.50;;;;;;10000935;29;20062;-61
2022/10/06 05:30:37;;;;;;;2.88;0.55;;;15.00;96.50;;;;;;9993088;29;20046;-60
2022/10/06 05:35:59;;;;;;;3.42;0.68;;;15.00;96.50;;;;;;9986057;29;20038;-60
2022/10/06 05:41:20;;;;;;;4.97;0.95;;;15.00;96.50;;;;;;9997393;29;20014;-60
2022/10/06 05:46:40;;;;;;;2.83;0.93;;;15.00;96.50;;;;;;9991605;29;20419;-61
2022/10/06 05:51:59;;;;;;;2.78;0.52;;;14.90;96.40;;;;;;9996074;29;20262;-60
2022/10/06 05:57:18;;;;;;;7.72;2.30;;;14.90;96.40;;;;;;9998037;29;20050;-67
2022/10/06 06:02:37;;;;;;;5.75;0.90;;;14.90;96.40;;;;;;9992075;29;20038;-65
2022/10/06 06:07:57;;;;;;;5.55;1.70;;;14.90;96.40;;;;;;9899860;29;20097;-62
2022/10/06 06:13:22;;;;;;;2.85;0.70;;;14.90;96.40;;;;;;9902920;29;20037;-61
2022/10/06 06:18:41;;;;;;;2.80;1.10;;;14.90;96.30;;;;;;9911890;29;20479;-61
2022/10/06 06:24:02;;;;;;;2.60;0.57;;;14.90;96.30;;;;;;9899067;29;20046;-60
2022/10/06 06:29:22;;;;;;;3.80;0.50;;;14.90;96.30;;;;;;9910072;29;20041;-60
2022/10/06 06:34:41;;;;;;;3.00;0.63;;;14.80;96.20;;;;;;9904869;29;20133;-62
2022/10/06 06:40:01;;;;;;;1.90;0.50;;;14.80;96.20;;;;;;9908666;29;20156;-60
2022/10/06 06:45:20;;;;;;;3.47;0.60;;;14.80;96.20;;;;;;9897236;29;20053;-60
2022/10/06 06:50:40;;;;;;;3.13;0.70;;;14.80;96.10;;;;;;9902856;29;20042;-60
2022/10/06 06:56:00;;;;;;;2.78;0.70;;;14.60;96.10;;;;;;9896862;29;20043;-61
2022/10/06 07:01:21;;;;;;;2.67;0.55;;;14.80;96.10;;;;;;9902119;29;20030;-61
2022/10/06 07:06:41;;;;;;;4.03;0.82;;;14.90;96.10;;;;;;9901115;29;20439;-62
2022/10/06 07:12:00;;;;;;;2.75;0.68;;;14.80;96.00;;;;;;9910451;29;20030;-64
2022/10/06 07:28:36;;;;;;;4.05;1.08;;;14.90;95.90;;;;;;9910669;29;20057;-61
2022/10/06 07:34:02;;;;;;;4.30;1.02;;;15.00;95.90;;;;;;9893613;29;20041;-64
2022/10/06 07:39:22;;;;;;;5.43;1.08;;;15.20;95.80;;;;;;9892494;29;20308;-66
2022/10/06 07:44:42;;;;;;;5.07;1.00;;;14.90;95.50;;;;;;9897567;29;20444;-63
2022/10/06 07:50:01;;;;;;;5.50;0.85;;;14.60;95.80;;;;;;9891652;29;20042;-63
2022/10/06 07:55:21;;;;;;;8.30;1.13;;;14.40;96.00;;;;;;9895573;29;20038;-62
2022/10/06 08:00:42;;;;;;;11.30;1.52;;;14.30;96.20;;;;;;9899691;29;20046;-63
2022/10/06 08:06:01;;;;;;;3.30;1.00;;;14.10;96.20;;;;;;9899100;29;20054;-63
2022/10/06 08:11:21;;;;;;;5.30;1.00;;;14.00;96.30;;;;;;9901132;29;20178;-63
2022/10/06 08:16:41;;;;;;;6.72;1.35;;;14.00;96.30;;;;;;9888473;29;20884;-62
2022/10/06 08:22:01;;;;;;;8.82;1.38;;;14.10;96.40;;;;;;9886605;29;20443;-62
2022/10/06 08:27:22;;;;;;;4.30;1.00;;;14.10;96.40;;;;;;9886578;29;20509;-63
2022/10/06 08:32:42;;;;;;;7.43;1.00;;;14.20;96.30;;;;;;9895588;29;20896;-66
2022/10/06 08:38:01;;;;;;;12.18;1.77;;;14.20;96.30;;;;;;9903650;29;20137;-70
2022/10/06 08:43:23;;;;;;;7.25;1.20;;;14.20;96.40;;;;;;9892677;29;20050;-62
2022/10/06 08:48:42;;;;;;;6.45;1.13;;;14.30;96.40;;;;;;9897296;29;20046;-63
2022/10/06 08:54:15;;;;;;;8.32;1.50;;;14.40;96.50;;;;;;9898009;29;20043;-62
2022/10/06 08:59:35;;;;;;;6.50;1.20;;;14.60;96.60;;;;;;9894900;29;20034;-67
2022/10/06 09:04:57;;;;;;;7.72;1.02;;;14.70;96.30;;;;;;9898700;29;20046;-63
2022/10/06 09:10:19;;;;;;;6.60;1.20;;;14.70;96.10;;;;;;9899180;29;20459;-64
2022/10/06 09:15:49;;;;;;;12.52;1.50;;;14.80;96.00;;;;;;9891494;29;20042;-63
2022/10/06 09:21:29;;;;;;;6.07;1.00;;;14.90;96.10;;;;;;9906296;29;20543;-64
2022/10/06 09:26:50;;;;;;;7.70;1.33;;;14.90;95.80;;;;;;9891553;29;20066;-63
2022/10/06 09:32:15;;;;;;;6.63;1.30;;;15.00;95.80;;;;;;9896489;29;20031;-64
2022/10/06 09:37:51;;;;;;;8.95;1.50;;;15.00;95.90;;;;;;9902694;29;20065;-64
2022/10/06 09:43:30;;;;;;;5.35;1.10;;;15.10;95.70;;;;;;9904397;29;20058;-65
2022/10/06 09:49:26;;;;;;;6.40;1.30;;;15.20;95.60;;;;;;9893638;29;20689;-65
2022/10/06 09:55:05;;;;;;;8.02;1.30;;;15.40;95.40;;;;;;9897590;29;20043;-63
2022/10/06 10:00:40;;;;;;;4.88;0.88;;;15.50;95.10;;;;;;9896183;29;20107;-63
2022/10/06 10:06:01;;;;;;;5.82;1.00;;;15.60;95.20;;;;;;9908245;29;20042;-63
2022/10/06 10:17:35;;;;;;;8.88;1.38;;;15.60;95.10;;;;;;9910515;29;20049;-62
2022/10/06 10:22:57;;;;;;;7.18;1.17;;;15.60;94.90;;;;;;9900667;29;20962;-63
2022/10/06 10:28:40;;;;;;;8.48;2.17;;;15.50;95.20;;;;;;9905579;29;20198;-63
2022/10/06 10:34:00;;;;;;;4.72;0.93;;;15.50;94.80;;;;;;9901138;29;20046;-63
2022/10/06 10:39:39;;;;;;;3.70;0.73;;;15.50;95.10;;;;;;9906722;29;20824;-63
2022/10/06 10:45:03;;;;;;;;;;;15.50;94.90;;;;;;9912017;29;20049;-69
2022/10/06 10:50:31;;;;;;;3.53;1.42;;;15.50;94.40;;;;;;9899449;29;20466;-63
2022/10/06 10:55:52;;;;;;;5.00;1.13;;;15.70;94.80;;;;;;9892893;29;20408;-62
2022/10/06 11:01:24;;;;;;;4.22;0.85;;;15.70;94.60;;;;;;9902604;29;20038;-63
2022/10/06 11:06:47;;;;;;;5.05;0.70;;;15.70;94.30;;;;;;9906253;29;20441;-65
2022/10/06 11:12:43;;;;;;;4.50;0.65;;;15.80;93.90;;;;;;9902653;29;20039;-62
2022/10/06 11:18:45;;;;;;;3.95;0.68;;;15.90;92.70;;;;;;9904519;29;20066;-65
2022/10/06 11:24:56;;;;;;;3.00;0.88;;;16.00;92.30;;;;;;9905826;29;20955;-65
2022/10/06 11:30:25;;;;;;;3.50;1.30;;;16.10;92.80;;;;;;9877048;29;20824;-63
2022/10/06 11:35:47;;;;;;;4.95;0.75;;;16.20;92.80;;;;;;9908468;29;20486;-64
2022/10/06 11:41:27;;;;;;;5.90;0.65;;;16.20;92.70;;;;;;9903630;29;20038;-62
2022/10/06 11:47:19;;;;;;;4.75;0.77;;;16.20;92.40;;;;;;9914021;29;20058;-60
2022/10/06 11:52:45;;;;;;;5.28;0.50;;;16.30;92.40;;;;;;9900974;29;20080;-60
2022/10/06 11:58:14;;;;;;;8.35;0.80;;;16.40;92.20;;;;;;9902388;29;20075;-62
2022/10/06 12:03:44;;;;;;;7.72;1.88;;;16.50;92.00;;;;;;9904928;29;21032;-64
2022/10/06 12:09:31;;;;;;;5.25;0.68;;;16.50;91.50;;;;;;9902765;29;20556;-66
2022/10/06 12:14:53;;;;;;;2.63;0.60;;;16.50;91.60;;;;;;9903236;29;20050;-64
2022/10/06 12:20:28;;;;;;;5.40;0.68;;;16.70;91.90;;;;;;9911511;29;20071;-69
2022/10/06 12:25:54;;;;;;;3.63;0.50;;;16.80;91.30;;;;;;9903196;29;20049;-61
2022/10/06 12:31:36;;;;;;;6.30;0.60;;;16.90;91.40;;;;;;9908344;29;20973;-60
2022/10/06 12:37:27;;;;;;;2.63;0.85;;;17.00;90.70;;;;;;9904395;29;20708;-61
2022/10/06 12:42:47;;;;;;;5.00;0.60;;;17.10;90.90;;;;;;9881566;29;20057;-61
2022/10/06 12:48:21;;;;;;;5.00;0.68;;;16.90;91.10;;;;;;9891944;29;20298;-63
2022/10/06 12:54:08;;;;;;;3.08;0.60;;;16.80;90.80;;;;;;9891825;29;20037;-63
2022/10/06 12:59:37;;;;;;;4.22;0.60;;;16.40;90.50;;;;;;9890286;29;20117;-60
2022/10/06 13:05:10;;;;;;;5.07;0.60;;;16.90;90.50;;;;;;9892583;29;20993;-59
2022/10/06 13:10:31;;;;;;;2.97;0.60;;;16.90;90.10;;;;;;9889912;29;20070;-60
2022/10/06 13:15:54;;;;;;;2.92;0.57;;;17.00;90.70;;;;;;9874785;29;20054;-62
2022/10/06 13:21:15;;;;;;;5.80;0.65;;;17.10;90.40;;;;;;9901017;29;20050;-60
2022/10/06 13:26:34;;;;;;;7.30;1.10;;;17.10;90.30;;;;;;9889145;29;20050;-60
2022/10/06 13:31:54;;;;;;;6.22;0.50;;;17.20;90.30;;;;;;9886046;29;20438;-61
2022/10/06 13:37:14;;;;;;;5.75;0.90;;;17.40;90.00;;;;;;9888383;29;20042;-60
2022/10/06 13:42:34;;;;;;;2.15;0.57;;;17.50;90.00;;;;;;9896141;29;20273;-63
2022/10/06 13:48:27;;;;;;;6.78;0.75;;;17.70;88.60;;;;;;9886355;29;20038;-60
2022/10/06 13:53:47;;;;;;;9.38;1.63;;;17.90;85.30;;;;;;9872877;29;21893;-63
2022/10/06 13:59:29;;;;;;;3.30;0.70;;;18.00;87.70;;;;;;9884193;29;20866;-63
2022/10/06 14:05:19;;;;;;;3.78;0.50;;;18.10;86.70;;;;;;9900964;29;20057;-63
2022/10/06 14:10:39;;;;;;;3.75;0.73;;;18.20;84.80;;;;;;9903008;29;20770;-61
2022/10/06 14:16:01;;;;;;;2.60;0.70;;;17.80;87.60;;;;;;9904766;29;20838;-63
2022/10/06 14:22:02;;;;;;;4.78;0.75;;;17.50;88.70;;;;;;9899588;29;20441;-63
2022/10/06 14:27:21;;;;;;;7.88;1.00;;;17.30;87.90;;;;;;9903618;29;20058;-62
2022/10/06 14:32:41;;;;;;;4.80;0.98;;;17.20;89.40;;;;;;9911471;24;20149;-63
2022/10/06 14:38:00;;;;;;;4.85;0.80;;;17.30;89.70;;;;;;9890358;29;20504;-63
2022/10/06 14:43:33;;;;;;;4.68;0.80;;;17.20;89.60;;;;;;9880678;29;20562;-73
2022/10/06 14:48:52;;;;;;;2.67;0.73;;;17.10;89.00;;;;;;9893545;29;20046;-63
2022/10/06 14:54:12;;;;;;;3.45;0.70;;;17.00;90.00;;;;;;9876946;29;20098;-60
2022/10/06 14:59:31;;;;;;;2.85;0.52;;;17.00;90.10;;;;;;9873919;29;20524;-62
2022/10/06 15:04:51;;;;;;;5.03;0.85;;;17.10;89.90;;;;;;9879948;29;20726;-61
2022/10/06 15:10:10;;;;;;;5.15;0.63;;;17.00;89.80;;;;;;9896284;29;20516;-61
2022/10/06 15:15:32;;;;;;;5.40;0.68;;;16.80;89.90;;;;;;9882914;29;20914;-68
2022/10/06 15:20:52;;;;;;;4.72;1.00;;;16.70;90.20;;;;;;9882464;29;20038;-61
2022/10/06 15:31:54;;;;;;;6.43;0.68;;;16.50;90.50;;;;;;9886124;29;20488;-61
2022/10/06 15:37:13;;;;;;;4.70;0.93;;;16.40;90.60;;;;;;9881890;29;20532;-61
2022/10/06 15:42:33;;;;;;;5.88;1.10;;;16.30;90.70;;;;;;9884850;29;20050;-61
2022/10/06 15:47:52;;;;;;;3.00;0.93;;;16.30;90.70;;;;;;9885972;29;20444;-60
2022/10/06 15:53:13;;;;;;;5.68;0.77;;;16.20;90.60;;;;;;9884357;29;20062;-61
2022/10/06 15:58:32;;;;;;;5.35;0.90;;;16.10;90.50;;;;;;9887526;29;20048;-61
2022/10/06 16:03:52;;;;;;;5.50;0.70;;;16.10;90.50;;;;;;9873764;29;20086;-65
2022/10/06 16:09:12;;;;;;;6.45;0.70;;;16.00;90.50;;;;;;9874364;29;20359;-68
2022/10/06 16:14:31;;;;;;;5.20;0.80;;;16.00;90.60;;;;;;9870638;29;20042;-61
2022/10/06 16:19:51;;;;;;;4.07;0.75;;;16.00;90.70;;;;;;9871179;29;20054;-62
2022/10/06 16:25:10;;;;;;;3.30;0.80;;;16.20;90.80;;;;;;9883738;29;20046;-62
2022/10/06 16:30:29;;;;;;;5.07;0.82;;;16.20;90.80;;;;;;9864768;29;21048;-61
2022/10/06 16:35:56;;;;;;;5.18;0.75;;;16.30;90.80;;;;;;9884806;29;20075;-62
2022/10/06 16:41:16;;;;;;;3.45;0.75;;;16.40;90.80;;;;;;9879480;29;20586;-61
2022/10/06 16:46:36;;;;;;;2.22;0.60;;;16.40;90.80;;;;;;9881716;29;20046;-65
2022/10/06 16:51:56;;;;;;;5.93;0.70;;;16.40;90.90;;;;;;9883611;29;20288;-64
2022/10/06 16:57:15;;;;;;;4.57;0.88;;;16.40;90.90;;;;;;9891922;29;20429;-65
2022/10/06 17:02:34;;;;;;;2.90;0.82;;;16.40;91.00;;;;;;9881228;29;20575;-64
2022/10/06 17:07:54;;;;;;;3.72;0.80;;;16.40;91.00;;;;;;9882321;29;20046;-62
2022/10/06 17:13:13;;;;;;;4.20;0.73;;;16.40;91.00;;;;;;9892718;29;20255;-62
2022/10/06 17:18:33;;;;;;;4.43;1.25;;;16.30;91.00;;;;;;9888538;29;20045;-60
2022/10/06 17:23:58;;;;;;;1.92;0.60;;;16.40;91.10;;;;;;9888248;29;20133;-63
2022/10/06 17:29:20;;;;;;;1.35;0.50;;;16.20;91.10;;;;;;9882370;29;20026;-65
2022/10/06 17:34:39;;;;;;;4.88;0.98;;;16.20;91.30;;;;;;9969923;29;20087;-62
2022/10/06 17:39:59;;;;;;;1.95;0.60;;;16.20;91.30;;;;;;9972135;29;20050;-63
2022/10/06 17:45:18;;;;;;;3.33;0.60;;;16.20;91.30;;;;;;9955982;29;20676;-63
2022/10/06 17:50:37;;;;;;;4.05;1.02;;;16.20;91.30;;;;;;9957967;29;20034;-63
2022/10/06 17:55:57;;;;;;;3.40;0.60;;;16.20;91.30;;;;;;9956531;29;20066;-63
2022/10/06 18:01:16;;;;;;;3.45;0.85;;;16.20;91.40;;;;;;9959766;29;20070;-66
2022/10/06 18:06:36;;;;;;;4.07;0.82;;;16.20;91.50;;;;;;9953896;29;20104;-66
2022/10/06 18:11:57;;;;;;;4.05;0.80;;;16.20;91.50;;;;;;9948201;29;20408;-63
2022/10/06 18:17:17;;;;;;;4.88;0.88;;;16.10;91.50;;;;;;9967632;29;20034;-64
2022/10/06 18:22:36;;;;;;;2.03;0.60;;;16.10;91.50;;;;;;9971508;29;20667;-63
2022/10/06 18:27:55;;;;;;;3.50;0.80;;;16.10;91.50;;;;;;9968507;29;20520;-63
2022/10/06 18:33:14;;;;;;;3.30;0.70;;;16.10;91.50;;;;;;9969276;29;20516;-63
2022/10/06 18:38:43;;;;;;;6.80;0.90;;;16.00;91.50;;;;;;9971056;29;20265;-64
2022/10/06 18:44:03;;;;;;;3.53;0.68;;;16.00;91.50;;;;;;9948809;29;20488;-63
2022/10/06 18:49:24;;;;;;;4.50;0.90;;;16.00;91.50;;;;;;9961030;29;20068;-63
2022/10/06 18:54:44;;;;;;;2.55;0.80;;;16.00;91.50;;;;;;9963025;29;20034;-64
2022/10/06 19:00:04;;;;;;;3.53;0.82;;;15.90;91.50;;;;;;9955530;29;20034;-63
2022/10/06 19:05:23;;;;;;;2.67;0.68;;;15.90;91.50;;;;;;9953856;29;20529;-64
2022/10/06 19:11:40;;;;;;;1.63;0.80;;;15.90;91.50;;;;;;9950196;29;20073;-63
2022/10/06 19:16:22;;;;;;;2.67;0.70;;;15.90;91.60;;;;;;9952127;29;20039;-63
2022/10/06 19:21:44;;;;;;;1.80;0.63;;;15.80;91.60;;;;;;9964777;29;20050;-65
2022/10/06 19:27:10;;;;;;;2.00;0.73;;;15.80;91.60;;;;;;9956273;29;20043;-63
2022/10/06 19:32:33;;;;;;;2.25;0.60;;;15.80;91.50;;;;;;9959171;29;20050;-64
2022/10/06 19:37:53;;;;;;;4.40;0.80;;;15.70;91.60;;;;;;9958966;29;20546;-63
2022/10/06 19:43:12;;;;;;;2.38;0.93;;;15.80;91.60;;;;;;9953244;29;20047;-62
2022/10/06 19:48:31;;;;;;;4.45;0.95;;;15.70;91.60;;;;;;9947409;29;20031;-64
2022/10/06 19:53:50;;;;;;;1.85;1.08;;;15.70;91.60;;;;;;9958085;29;20046;-63
2022/10/06 19:59:14;;;;;;;4.95;1.05;;;15.70;91.60;;;;;;9957962;29;20039;-64
2022/10/06 20:04:34;;;;;;;3.30;0.90;;;15.70;91.60;;;;;;9963072;29;20042;-63
2022/10/06 20:09:54;;;;;;;3.05;0.88;;;15.60;91.60;;;;;;9963905;29;20503;-63
2022/10/06 20:15:13;;;;;;;4.80;1.70;;;15.60;91.60;;;;;;9960902;29;20054;-63
2022/10/06 20:20:33;;;;;;;4.22;0.80;;;15.60;91.70;;;;;;9969019;29;20038;-63
2022/10/06 20:25:52;;;;;;;2.75;0.70;;;15.50;91.70;;;;;;9967649;29;20492;-64
2022/10/06 20:31:21;;;;;;;3.65;1.00;;;15.50;91.70;;;;;;9955595;29;20476;-64
2022/10/06 20:36:41;;;;;;;2.90;1.10;;;15.50;91.70;;;;;;9959417;29;20082;-64
2022/10/06 20:42:00;;;;;;;2.05;0.80;;;15.50;91.70;;;;;;9962959;29;20488;-67
2022/10/06 20:47:20;;;;;;;1.48;1.10;;;15.40;91.70;;;;;;9959562;29;20108;-64
2022/10/06 20:52:39;;;;;;;3.63;0.73;;;15.40;91.70;;;;;;9960131;29;20034;-63
2022/10/06 20:57:59;;;;;;;3.03;0.90;;;15.40;91.70;;;;;;9952987;29;20046;-64
2022/10/06 21:03:18;;;;;;;3.83;0.90;;;15.40;92.00;;;;;;9956453;29;20042;-64
2022/10/06 21:08:37;;;;;;;4.40;1.00;;;15.30;91.70;;;;;;9946346;29;20038;-64
2022/10/06 21:13:57;;;;;;;2.03;0.70;;;15.30;91.70;;;;;;9956618;29;20051;-63
2022/10/06 21:19:18;;;;;;;4.40;0.82;;;15.30;91.70;;;;;;9951593;29;20666;-64
2022/10/06 21:24:37;;;;;;;4.32;1.08;;;15.30;91.60;;;;;;9947882;29;20743;-64
2022/10/06 21:29:56;;;;;;;2.10;0.73;;;15.30;91.60;;;;;;9952991;29;20042;-64
2022/10/06 21:35:15;;;;;;;2.80;1.20;;;15.20;91.60;;;;;;9948210;29;20058;-64
2022/10/06 21:40:36;;;;;;;5.53;1.33;;;15.20;91.60;;;;;;9941258;29;20228;-65
2022/10/06 21:45:55;;;;;;;3.50;0.90;;;15.20;91.60;;;;;;9951244;29;20137;-63
2022/10/06 21:51:14;;;;;;;4.53;1.00;;;15.20;91.60;;;;;;9958305;29;20038;-63
2022/10/06 21:56:34;;;;;;;4.20;1.15;;;15.20;91.60;;;;;;9962774;29;20050;-65
2022/10/06 22:01:53;;;;;;;3.70;1.17;;;15.10;91.60;;;;;;9971705;29;20492;-63
2022/10/06 22:07:12;;;;;;;4.53;1.05;;;15.10;91.60;;;;;;9972860;29;21174;-63
2022/10/06 22:12:31;;;;;;;1.60;0.93;;;15.10;91.90;;;;;;9959029;29;20042;-64
2022/10/06 22:17:50;;;;;;;3.33;0.95;;;15.10;91.60;;;;;;9972713;29;20448;-69
2022/10/06 22:23:10;;;;;;;6.68;1.83;;;15.00;91.60;;;;;;9971643;29;20078;-63
2022/10/06 22:28:29;;;;;;;3.30;1.00;;;15.00;91.60;;;;;;9970677;29;20038;-63
2022/10/06 22:33:54;;;;;;;3.20;1.10;;;15.00;91.60;;;;;;9972744;29;20058;-64
2022/10/06 22:39:13;;;;;;;3.47;1.30;;;15.00;91.60;;;;;;9971644;29;20026;-63
2022/10/06 22:44:32;;;;;;;3.05;1.20;;;15.00;91.60;;;;;;9971510;29;20435;-63
2022/10/06 22:49:52;;;;;;;3.88;0.95;;;14.90;91.60;;;;;;9972156;29;20392;-63
2022/10/06 22:55:11;;;;;;;3.63;1.20;;;14.90;91.60;;;;;;9969212;29;20611;-64
2022/10/06 23:00:30;;;;;;;3.03;1.10;;;14.90;91.60;;;;;;9970750;29;20099;-64
2022/10/06 23:05:58;;;;;;;3.17;1.20;;;14.90;91.60;;;;;;9968610;29;20462;-64
2022/10/06 23:11:19;;;;;;;2.93;1.40;;;14.90;91.60;;;;;;9969220;29;20038;-67
2022/10/06 23:16:38;;;;;;;2.13;1.05;;;14.80;91.60;;;;;;9970059;29;20046;-64
2022/10/06 23:21:57;;;;;;;4.53;1.30;;;14.80;91.60;;;;;;9971164;29;20121;-64
2022/10/06 23:27:16;;;;;;;4.60;1.50;;;14.80;91.60;;;;;;9970755;29;20446;-64
2022/10/06 23:32:36;;;;;;;2.75;2.03;;;14.80;91.60;;;;;;9970466;29;20078;-64
2022/10/06 23:37:55;;;;;;;3.10;1.40;;;14.70;91.60;;;;;;9970492;29;20076;-67
2022/10/06 23:43:15;;;;;;;6.28;1.33;;;14.70;91.60;;;;;;9968801;29;20054;-63
2022/10/06 23:48:34;;;;;;;3.70;1.52;;;14.70;91.60;;;;;;9968815;29;20504;-63
2022/10/06 23:53:53;;;;;;;3.28;1.45;;;14.70;91.60;;;;;;9970273;29;20436;-66
2022/10/06 23:59:13;;;;;;;6.25;1.60;;;14.70;91.60;;;;;;9965652;29;20042;-64
